sensor_id;sensor_type;location;lat;lon;timestamp;temperature;humidity
71039;SHT30;58692;43.212;27.908;2023-09-19T00:00:30;20.28;73.51
71039;SHT30;58692;43.212;27.908;2023-09-19T00:02:56;20.22;73.71
71039;SHT30;58692;43.212;27.908;2023-09-19T00:05:23;20.28;73.64
71039;SHT30;58692;43.212;27.908;2023-09-19T00:07:51;20.34;73.33
71039;SHT30;58692;43.212;27.908;2023-09-19T00:10:21;20.29;73.36
71039;SHT30;58692;43.212;27.908;2023-09-19T00:12:53;20.34;73.23
71039;SHT30;58692;43.212;27.908;2023-09-19T00:15:25;20.26;73.33
71039;SHT30;58692;43.212;27.908;2023-09-19T00:17:54;20.08;73.50
71039;SHT30;58692;43.212;27.908;2023-09-19T00:20:19;19.86;74.10
71039;SHT30;58692;43.212;27.908;2023-09-19T00:22:48;19.48;74.74
71039;SHT30;58692;43.212;27.908;2023-09-19T00:25:14;19.48;74.96
71039;SHT30;58692;43.212;27.908;2023-09-19T00:27:41;19.32;75.41
71039;SHT30;58692;43.212;27.908;2023-09-19T00:30:11;19.34;75.60
71039;SHT30;58692;43.212;27.908;2023-09-19T00:32:42;19.47;75.20
71039;SHT30;58692;43.212;27.908;2023-09-19T00:35:08;19.23;76.04
71039;SHT30;58692;43.212;27.908;2023-09-19T00:37:36;19.02;77.18
71039;SHT30;58692;43.212;27.908;2023-09-19T00:40:03;18.83;77.89
71039;SHT30;58692;43.212;27.908;2023-09-19T00:42:31;18.93;77.61
71039;SHT30;58692;43.212;27.908;2023-09-19T00:44:59;18.87;77.47
71039;SHT30;58692;43.212;27.908;2023-09-19T00:47:24;19.04;77.34
71039;SHT30;58692;43.212;27.908;2023-09-19T00:49:50;18.72;78.45
71039;SHT30;58692;43.212;27.908;2023-09-19T00:52:17;18.79;78.07
71039;SHT30;58692;43.212;27.908;2023-09-19T00:54:46;19.02;77.30
71039;SHT30;58692;43.212;27.908;2023-09-19T00:57:13;19.07;76.79
71039;SHT30;58692;43.212;27.908;2023-09-19T00:59:41;18.92;77.35
71039;SHT30;58692;43.212;27.908;2023-09-19T01:02:08;19.04;77.26
71039;SHT30;58692;43.212;27.908;2023-09-19T01:04:34;19.06;77.39
71039;SHT30;58692;43.212;27.908;2023-09-19T01:06:59;19.06;77.29
71039;SHT30;58692;43.212;27.908;2023-09-19T01:09:25;19.18;76.90
71039;SHT30;58692;43.212;27.908;2023-09-19T01:11:53;19.23;76.80
71039;SHT30;58692;43.212;27.908;2023-09-19T01:14:28;19.30;76.49
71039;SHT30;58692;43.212;27.908;2023-09-19T01:25:42;19.34;77.27
71039;SHT30;58692;43.212;27.908;2023-09-19T01:30:43;19.32;77.01
71039;SHT30;58692;43.212;27.908;2023-09-19T01:33:10;19.37;76.90
71039;SHT30;58692;43.212;27.908;2023-09-19T01:35:40;19.34;76.84
71039;SHT30;58692;43.212;27.908;2023-09-19T01:38:06;19.30;76.65
71039;SHT30;58692;43.212;27.908;2023-09-19T01:40:42;19.31;76.63
71039;SHT30;58692;43.212;27.908;2023-09-19T01:51:06;19.11;77.38
71039;SHT30;58692;43.212;27.908;2023-09-19T01:53:38;19.23;77.30
71039;SHT30;58692;43.212;27.908;2023-09-19T01:56:08;19.20;77.23
71039;SHT30;58692;43.212;27.908;2023-09-19T01:58:42;19.11;77.59
71039;SHT30;58692;43.212;27.908;2023-09-19T02:01:11;19.04;77.77
71039;SHT30;58692;43.212;27.908;2023-09-19T02:03:41;19.00;77.89
71039;SHT30;58692;43.212;27.908;2023-09-19T02:06:14;18.93;77.92
71039;SHT30;58692;43.212;27.908;2023-09-19T02:08:41;19.00;77.63
71039;SHT30;58692;43.212;27.908;2023-09-19T02:11:06;18.89;77.60
71039;SHT30;58692;43.212;27.908;2023-09-19T02:13:32;18.92;77.51
71039;SHT30;58692;43.212;27.908;2023-09-19T02:15:59;18.82;77.80
71039;SHT30;58692;43.212;27.908;2023-09-19T02:18:24;18.86;77.76
71039;SHT30;58692;43.212;27.908;2023-09-19T02:20:53;18.76;77.97
71039;SHT30;58692;43.212;27.908;2023-09-19T02:23:19;18.52;78.86
71039;SHT30;58692;43.212;27.908;2023-09-19T02:26:00;18.60;78.40
71039;SHT30;58692;43.212;27.908;2023-09-19T02:28:26;18.48;78.59
71039;SHT30;58692;43.212;27.908;2023-09-19T02:30:59;18.48;78.67
71039;SHT30;58692;43.212;27.908;2023-09-19T02:33:25;18.63;78.30
71039;SHT30;58692;43.212;27.908;2023-09-19T02:35:55;18.60;78.41
71039;SHT30;58692;43.212;27.908;2023-09-19T02:38:23;18.66;78.35
71039;SHT30;58692;43.212;27.908;2023-09-19T02:40:50;18.72;78.17
71039;SHT30;58692;43.212;27.908;2023-09-19T02:43:16;18.49;79.10
71039;SHT30;58692;43.212;27.908;2023-09-19T02:45:42;18.36;79.82
71039;SHT30;58692;43.212;27.908;2023-09-19T02:48:08;18.43;79.79
71039;SHT30;58692;43.212;27.908;2023-09-19T02:50:34;18.48;79.80
71039;SHT30;58692;43.212;27.908;2023-09-19T02:52:59;18.39;80.12
71039;SHT30;58692;43.212;27.908;2023-09-19T02:55:25;18.45;80.06
71039;SHT30;58692;43.212;27.908;2023-09-19T02:57:53;18.33;80.24
71039;SHT30;58692;43.212;27.908;2023-09-19T03:00:21;18.21;80.75
71039;SHT30;58692;43.212;27.908;2023-09-19T03:02:48;18.24;80.82
71039;SHT30;58692;43.212;27.908;2023-09-19T03:05:14;17.91;81.97
71039;SHT30;58692;43.212;27.908;2023-09-19T03:07:40;17.98;81.78
71039;SHT30;58692;43.212;27.908;2023-09-19T03:10:08;17.87;81.96
71039;SHT30;58692;43.212;27.908;2023-09-19T03:12:35;18.12;81.23
71039;SHT30;58692;43.212;27.908;2023-09-19T03:15:01;18.01;81.30
71039;SHT30;58692;43.212;27.908;2023-09-19T03:17:27;18.04;81.42
71039;SHT30;58692;43.212;27.908;2023-09-19T03:19:53;18.09;81.35
71039;SHT30;58692;43.212;27.908;2023-09-19T03:22:19;18.02;81.23
71039;SHT30;58692;43.212;27.908;2023-09-19T03:24:45;18.01;81.57
71039;SHT30;58692;43.212;27.908;2023-09-19T03:27:11;18.06;81.40
71039;SHT30;58692;43.212;27.908;2023-09-19T03:29:39;18.13;81.22
71039;SHT30;58692;43.212;27.908;2023-09-19T03:32:05;18.13;81.58
71039;SHT30;58692;43.212;27.908;2023-09-19T03:34:31;18.18;81.46
71039;SHT30;58692;43.212;27.908;2023-09-19T03:36:56;18.06;81.55
71039;SHT30;58692;43.212;27.908;2023-09-19T03:39:22;17.88;82.18
71039;SHT30;58692;43.212;27.908;2023-09-19T03:41:48;17.78;81.93
71039;SHT30;58692;43.212;27.908;2023-09-19T03:44:15;17.88;81.40
71039;SHT30;58692;43.212;27.908;2023-09-19T03:46:40;17.84;81.07
71039;SHT30;58692;43.212;27.908;2023-09-19T03:49:06;17.97;80.40
71039;SHT30;58692;43.212;27.908;2023-09-19T03:51:31;17.91;80.18
71039;SHT30;58692;43.212;27.908;2023-09-19T03:53:59;17.92;80.16
71039;SHT30;58692;43.212;27.908;2023-09-19T03:56:26;18.02;79.71
71039;SHT30;58692;43.212;27.908;2023-09-19T03:58:52;18.12;79.38
71039;SHT30;58692;43.212;27.908;2023-09-19T04:01:17;18.21;78.91
71039;SHT30;58692;43.212;27.908;2023-09-19T04:03:44;18.25;78.82
71039;SHT30;58692;43.212;27.908;2023-09-19T04:06:14;18.33;78.54
71039;SHT30;58692;43.212;27.908;2023-09-19T04:08:39;18.41;78.32
71039;SHT30;58692;43.212;27.908;2023-09-19T04:11:05;18.36;78.47
71039;SHT30;58692;43.212;27.908;2023-09-19T04:13:31;18.51;78.21
71039;SHT30;58692;43.212;27.908;2023-09-19T04:15:57;18.55;78.05
71039;SHT30;58692;43.212;27.908;2023-09-19T04:18:23;18.62;77.77
71039;SHT30;58692;43.212;27.908;2023-09-19T04:20:50;18.66;77.76
71039;SHT30;58692;43.212;27.908;2023-09-19T04:23:16;18.72;77.80
71039;SHT30;58692;43.212;27.908;2023-09-19T04:25:42;18.80;77.54
71039;SHT30;58692;43.212;27.908;2023-09-19T04:28:09;18.86;77.33
71039;SHT30;58692;43.212;27.908;2023-09-19T04:30:38;19.08;76.97
71039;SHT30;58692;43.212;27.908;2023-09-19T04:33:06;19.21;76.81
71039;SHT30;58692;43.212;27.908;2023-09-19T04:35:34;19.50;76.08
71039;SHT30;58692;43.212;27.908;2023-09-19T04:38:00;19.71;75.49
71039;SHT30;58692;43.212;27.908;2023-09-19T04:40:28;19.95;75.03
71039;SHT30;58692;43.212;27.908;2023-09-19T04:42:56;20.26;74.24
71039;SHT30;58692;43.212;27.908;2023-09-19T04:45:23;20.23;74.09
71039;SHT30;58692;43.212;27.908;2023-09-19T04:47:48;20.49;73.77
71039;SHT30;58692;43.212;27.908;2023-09-19T04:50:14;20.61;73.57
71039;SHT30;58692;43.212;27.908;2023-09-19T04:52:41;20.80;72.98
71039;SHT30;58692;43.212;27.908;2023-09-19T04:55:11;21.07;72.13
71039;SHT30;58692;43.212;27.908;2023-09-19T04:57:39;21.30;71.54
71039;SHT30;58692;43.212;27.908;2023-09-19T05:00:05;21.54;70.72
71039;SHT30;58692;43.212;27.908;2023-09-19T05:02:37;21.46;70.74
71039;SHT30;58692;43.212;27.908;2023-09-19T05:05:03;21.52;70.18
71039;SHT30;58692;43.212;27.908;2023-09-19T05:07:30;21.71;69.59
71039;SHT30;58692;43.212;27.908;2023-09-19T05:09:55;21.74;69.10
71039;SHT30;58692;43.212;27.908;2023-09-19T05:12:21;21.89;68.93
71039;SHT30;58692;43.212;27.908;2023-09-19T05:14:49;21.96;68.33
71039;SHT30;58692;43.212;27.908;2023-09-19T05:17:15;22.30;67.74
71039;SHT30;58692;43.212;27.908;2023-09-19T05:19:42;22.39;67.57
71039;SHT30;58692;43.212;27.908;2023-09-19T05:22:08;22.44;67.58
71039;SHT30;58692;43.212;27.908;2023-09-19T05:24:33;22.65;66.94
71039;SHT30;58692;43.212;27.908;2023-09-19T05:26:59;22.83;66.43
71039;SHT30;58692;43.212;27.908;2023-09-19T05:29:25;22.90;65.55
71039;SHT30;58692;43.212;27.908;2023-09-19T05:31:50;23.23;64.50
71039;SHT30;58692;43.212;27.908;2023-09-19T05:34:16;23.56;64.12
71039;SHT30;58692;43.212;27.908;2023-09-19T05:36:42;23.73;63.32
71039;SHT30;58692;43.212;27.908;2023-09-19T05:39:09;24.13;62.64
71039;SHT30;58692;43.212;27.908;2023-09-19T05:41:35;24.25;62.52
71039;SHT30;58692;43.212;27.908;2023-09-19T05:44:05;24.44;62.17
71039;SHT30;58692;43.212;27.908;2023-09-19T05:46:32;24.72;61.46
71039;SHT30;58692;43.212;27.908;2023-09-19T05:48:58;24.94;61.15
71039;SHT30;58692;43.212;27.908;2023-09-19T05:51:24;24.68;61.87
71039;SHT30;58692;43.212;27.908;2023-09-19T05:53:53;24.74;61.66
71039;SHT30;58692;43.212;27.908;2023-09-19T05:56:19;24.76;62.03
71039;SHT30;58692;43.212;27.908;2023-09-19T05:58:46;24.94;61.38
71039;SHT30;58692;43.212;27.908;2023-09-19T06:01:12;24.71;62.02
71039;SHT30;58692;43.212;27.908;2023-09-19T06:03:42;25.05;61.64
71039;SHT30;58692;43.212;27.908;2023-09-19T06:06:08;25.60;60.06
71039;SHT30;58692;43.212;27.908;2023-09-19T06:08:37;25.36;60.44
71039;SHT30;58692;43.212;27.908;2023-09-19T06:11:04;25.46;60.33
71039;SHT30;58692;43.212;27.908;2023-09-19T06:13:32;26.00;59.23
71039;SHT30;58692;43.212;27.908;2023-09-19T06:15:59;26.49;58.07
71039;SHT30;58692;43.212;27.908;2023-09-19T06:18:28;25.39;60.59
71039;SHT30;58692;43.212;27.908;2023-09-19T06:20:54;25.39;60.76
71039;SHT30;58692;43.212;27.908;2023-09-19T06:23:23;26.10;59.24
71039;SHT30;58692;43.212;27.908;2023-09-19T06:25:51;26.52;57.84
71039;SHT30;58692;43.212;27.908;2023-09-19T06:28:16;26.91;57.09
71039;SHT30;58692;43.212;27.908;2023-09-19T06:30:49;27.30;56.62
71039;SHT30;58692;43.212;27.908;2023-09-19T06:33:14;27.34;56.35
71039;SHT30;58692;43.212;27.908;2023-09-19T06:35:44;27.33;56.24
71039;SHT30;58692;43.212;27.908;2023-09-19T06:38:12;27.67;55.93
71039;SHT30;58692;43.212;27.908;2023-09-19T06:40:38;27.16;56.84
71039;SHT30;58692;43.212;27.908;2023-09-19T06:43:05;27.30;56.35
71039;SHT30;58692;43.212;27.908;2023-09-19T06:45:31;27.76;55.43
71039;SHT30;58692;43.212;27.908;2023-09-19T06:47:57;28.31;54.37
71039;SHT30;58692;43.212;27.908;2023-09-19T06:50:23;28.25;54.12
71039;SHT30;58692;43.212;27.908;2023-09-19T06:52:50;28.21;54.66
71039;SHT30;58692;43.212;27.908;2023-09-19T06:55:17;27.90;55.19
71039;SHT30;58692;43.212;27.908;2023-09-19T06:57:46;28.35;54.25
71039;SHT30;58692;43.212;27.908;2023-09-19T07:00:13;27.85;54.99
71039;SHT30;58692;43.212;27.908;2023-09-19T07:02:56;28.12;54.43
71039;SHT30;58692;43.212;27.908;2023-09-19T07:05:22;28.19;54.61
71039;SHT30;58692;43.212;27.908;2023-09-19T07:07:48;26.98;57.15
71039;SHT30;58692;43.212;27.908;2023-09-19T07:10:17;27.04;57.42
71039;SHT30;58692;43.212;27.908;2023-09-19T07:12:48;28.31;54.71
71039;SHT30;58692;43.212;27.908;2023-09-19T07:15:18;28.15;54.75
71039;SHT30;58692;43.212;27.908;2023-09-19T07:17:45;29.06;53.33
71039;SHT30;58692;43.212;27.908;2023-09-19T07:20:11;29.70;52.30
71039;SHT30;58692;43.212;27.908;2023-09-19T07:22:41;29.92;51.51
71039;SHT30;58692;43.212;27.908;2023-09-19T07:25:07;30.23;50.54
71039;SHT30;58692;43.212;27.908;2023-09-19T07:27:33;30.39;49.79
71039;SHT30;58692;43.212;27.908;2023-09-19T07:29:59;30.67;48.95
71039;SHT30;58692;43.212;27.908;2023-09-19T07:32:24;31.69;47.64
71039;SHT30;58692;43.212;27.908;2023-09-19T07:34:50;31.58;47.02
71039;SHT30;58692;43.212;27.908;2023-09-19T07:37:16;30.96;48.69
71039;SHT30;58692;43.212;27.908;2023-09-19T07:39:41;31.41;47.59
71039;SHT30;58692;43.212;27.908;2023-09-19T07:42:09;31.84;46.99
71039;SHT30;58692;43.212;27.908;2023-09-19T07:44:36;32.74;44.92
71039;SHT30;58692;43.212;27.908;2023-09-19T07:47:02;33.01;44.64
71039;SHT30;58692;43.212;27.908;2023-09-19T07:49:28;33.03;44.62
71039;SHT30;58692;43.212;27.908;2023-09-19T07:51:54;32.43;45.06
71039;SHT30;58692;43.212;27.908;2023-09-19T07:54:23;31.21;47.58
71039;SHT30;58692;43.212;27.908;2023-09-19T07:56:49;31.69;46.36
71039;SHT30;58692;43.212;27.908;2023-09-19T07:59:15;30.93;48.42
71039;SHT30;58692;43.212;27.908;2023-09-19T08:01:41;31.71;47.87
71039;SHT30;58692;43.212;27.908;2023-09-19T08:04:07;31.23;48.85
71039;SHT30;58692;43.212;27.908;2023-09-19T08:06:33;30.13;51.06
71039;SHT30;58692;43.212;27.908;2023-09-19T08:08:58;30.52;49.94
71039;SHT30;58692;43.212;27.908;2023-09-19T08:11:26;30.00;49.75
71039;SHT30;58692;43.212;27.908;2023-09-19T08:13:56;29.23;51.29
71039;SHT30;58692;43.212;27.908;2023-09-19T08:16:21;29.35;49.74
71039;SHT30;58692;43.212;27.908;2023-09-19T08:18:48;28.95;48.84
71039;SHT30;58692;43.212;27.908;2023-09-19T08:21:14;28.17;52.12
71039;SHT30;58692;43.212;27.908;2023-09-19T08:23:40;28.46;52.38
71039;SHT30;58692;43.212;27.908;2023-09-19T08:26:06;28.42;50.72
71039;SHT30;58692;43.212;27.908;2023-09-19T08:28:39;29.10;49.47
71039;SHT30;58692;43.212;27.908;2023-09-19T08:31:07;28.93;51.73
71039;SHT30;58692;43.212;27.908;2023-09-19T08:33:35;29.31;49.71
71039;SHT30;58692;43.212;27.908;2023-09-19T08:36:01;29.35;49.18
71039;SHT30;58692;43.212;27.908;2023-09-19T08:38:30;29.19;51.39
71039;SHT30;58692;43.212;27.908;2023-09-19T08:41:00;29.13;51.14
71039;SHT30;58692;43.212;27.908;2023-09-19T08:43:27;28.90;51.60
71039;SHT30;58692;43.212;27.908;2023-09-19T08:46:11;29.34;50.29
71039;SHT30;58692;43.212;27.908;2023-09-19T08:48:45;28.69;47.55
71039;SHT30;58692;43.212;27.908;2023-09-19T08:51:21;28.49;51.18
71039;SHT30;58692;43.212;27.908;2023-09-19T08:54:04;29.30;48.32
71039;SHT30;58692;43.212;27.908;2023-09-19T08:56:32;29.86;48.13
71039;SHT30;58692;43.212;27.908;2023-09-19T08:59:02;30.51;47.32
71039;SHT30;58692;43.212;27.908;2023-09-19T09:01:31;29.77;45.21
71039;SHT30;58692;43.212;27.908;2023-09-19T09:03:58;29.54;48.22
71039;SHT30;58692;43.212;27.908;2023-09-19T09:06:28;29.71;48.59
71039;SHT30;58692;43.212;27.908;2023-09-19T09:08:59;30.05;48.78
71039;SHT30;58692;43.212;27.908;2023-09-19T09:11:26;29.93;48.98
71039;SHT30;58692;43.212;27.908;2023-09-19T09:13:53;30.28;49.01
71039;SHT30;58692;43.212;27.908;2023-09-19T09:16:19;29.86;48.55
71039;SHT30;58692;43.212;27.908;2023-09-19T09:18:45;30.46;47.13
71039;SHT30;58692;43.212;27.908;2023-09-19T09:21:21;29.43;50.07
71039;SHT30;58692;43.212;27.908;2023-09-19T09:23:48;29.16;50.75
71039;SHT30;58692;43.212;27.908;2023-09-19T09:26:15;29.41;49.75
71039;SHT30;58692;43.212;27.908;2023-09-19T09:28:46;29.19;49.93
71039;SHT30;58692;43.212;27.908;2023-09-19T09:31:30;29.81;48.78
71039;SHT30;58692;43.212;27.908;2023-09-19T09:33:57;30.15;48.19
71039;SHT30;58692;43.212;27.908;2023-09-19T09:36:39;30.72;47.65
71039;SHT30;58692;43.212;27.908;2023-09-19T09:39:06;30.66;47.20
71039;SHT30;58692;43.212;27.908;2023-09-19T09:41:47;30.64;47.72
71039;SHT30;58692;43.212;27.908;2023-09-19T09:44:15;29.80;50.08
71039;SHT30;58692;43.212;27.908;2023-09-19T09:46:43;29.50;49.62
71039;SHT30;58692;43.212;27.908;2023-09-19T09:49:26;29.72;49.47
71039;SHT30;58692;43.212;27.908;2023-09-19T09:52:03;29.21;50.90
71039;SHT30;58692;43.212;27.908;2023-09-19T09:54:34;28.76;52.33
71039;SHT30;58692;43.212;27.908;2023-09-19T09:57:06;29.37;50.87
71039;SHT30;58692;43.212;27.908;2023-09-19T10:02:21;29.11;50.09
71039;SHT30;58692;43.212;27.908;2023-09-19T10:07:39;29.19;51.12
71039;SHT30;58692;43.212;27.908;2023-09-19T10:10:08;29.61;51.08
71039;SHT30;58692;43.212;27.908;2023-09-19T10:12:44;30.15;49.37
71039;SHT30;58692;43.212;27.908;2023-09-19T10:15:12;30.11;49.02
71039;SHT30;58692;43.212;27.908;2023-09-19T10:17:43;30.32;49.22
71039;SHT30;58692;43.212;27.908;2023-09-19T10:20:14;31.26;47.69
71039;SHT30;58692;43.212;27.908;2023-09-19T10:23:01;30.15;49.91
71039;SHT30;58692;43.212;27.908;2023-09-19T10:25:29;31.17;48.13
71039;SHT30;58692;43.212;27.908;2023-09-19T10:27:57;30.69;49.06
71039;SHT30;58692;43.212;27.908;2023-09-19T10:30:31;30.60;49.65
71039;SHT30;58692;43.212;27.908;2023-09-19T10:33:03;29.72;50.80
71039;SHT30;58692;43.212;27.908;2023-09-19T10:35:29;29.07;52.47
71039;SHT30;58692;43.212;27.908;2023-09-19T10:37:57;29.38;52.41
71039;SHT30;58692;43.212;27.908;2023-09-19T10:40:26;29.17;53.12
71039;SHT30;58692;43.212;27.908;2023-09-19T10:43:02;29.34;52.12
71039;SHT30;58692;43.212;27.908;2023-09-19T10:45:31;29.47;52.13
71039;SHT30;58692;43.212;27.908;2023-09-19T10:47:58;28.76;53.08
71039;SHT30;58692;43.212;27.908;2023-09-19T10:50:24;29.14;51.98
71039;SHT30;58692;43.212;27.908;2023-09-19T10:52:53;29.40;52.34
71039;SHT30;58692;43.212;27.908;2023-09-19T10:55:25;29.04;52.68
71039;SHT30;58692;43.212;27.908;2023-09-19T10:57:53;30.13;50.89
71039;SHT30;58692;43.212;27.908;2023-09-19T11:00:22;29.61;51.74
71039;SHT30;58692;43.212;27.908;2023-09-19T11:03:20;29.53;52.14
71039;SHT30;58692;43.212;27.908;2023-09-19T11:08:51;28.45;54.44
71039;SHT30;58692;43.212;27.908;2023-09-19T11:11:42;28.69;54.31
71039;SHT30;58692;43.212;27.908;2023-09-19T11:25:45;29.41;53.49
71039;SHT30;58692;43.212;27.908;2023-09-19T11:30:45;28.31;56.23
71039;SHT30;58692;43.212;27.908;2023-09-19T11:36:09;28.93;55.15
71039;SHT30;58692;43.212;27.908;2023-09-19T11:38:57;29.10;54.88
71039;SHT30;58692;43.212;27.908;2023-09-19T11:43:50;29.55;54.82
71039;SHT30;58692;43.212;27.908;2023-09-19T11:46:17;28.86;56.08
71039;SHT30;58692;43.212;27.908;2023-09-19T11:48:47;28.86;56.46
71039;SHT30;58692;43.212;27.908;2023-09-19T11:53:47;29.77;53.43
71039;SHT30;58692;43.212;27.908;2023-09-19T11:56:23;29.49;54.18
71039;SHT30;58692;43.212;27.908;2023-09-19T11:58:51;29.20;55.13
71039;SHT30;58692;43.212;27.908;2023-09-19T12:01:33;28.78;55.60
71039;SHT30;58692;43.212;27.908;2023-09-19T12:04:02;28.70;55.85
71039;SHT30;58692;43.212;27.908;2023-09-19T12:06:30;28.56;56.20
71039;SHT30;58692;43.212;27.908;2023-09-19T12:08:58;27.98;57.53
71039;SHT30;58692;43.212;27.908;2023-09-19T12:11:32;28.32;57.36
71039;SHT30;58692;43.212;27.908;2023-09-19T12:13:59;27.84;57.83
71039;SHT30;58692;43.212;27.908;2023-09-19T12:16:26;27.40;58.45
71039;SHT30;58692;43.212;27.908;2023-09-19T12:18:56;27.06;58.85
71039;SHT30;58692;43.212;27.908;2023-09-19T12:21:29;26.93;59.99
71039;SHT30;58692;43.212;27.908;2023-09-19T12:24:16;26.49;61.50
71039;SHT30;58692;43.212;27.908;2023-09-19T12:26:45;27.43;59.74
71039;SHT30;58692;43.212;27.908;2023-09-19T12:29:15;27.44;59.29
71039;SHT30;58692;43.212;27.908;2023-09-19T12:31:58;27.61;59.08
71039;SHT30;58692;43.212;27.908;2023-09-19T12:34:26;27.80;58.84
71039;SHT30;58692;43.212;27.908;2023-09-19T12:39:39;26.65;60.53
71039;SHT30;58692;43.212;27.908;2023-09-19T12:42:08;26.75;60.09
71039;SHT30;58692;43.212;27.908;2023-09-19T12:44:36;26.56;60.70
71039;SHT30;58692;43.212;27.908;2023-09-19T12:47:11;26.63;61.12
71039;SHT30;58692;43.212;27.908;2023-09-19T12:52:42;26.22;62.10
71039;SHT30;58692;43.212;27.908;2023-09-19T12:55:10;26.45;61.50
71039;SHT30;58692;43.212;27.908;2023-09-19T13:03:17;25.93;62.91
71039;SHT30;58692;43.212;27.908;2023-09-19T13:08:34;25.74;63.81
71039;SHT30;58692;43.212;27.908;2023-09-19T13:13:33;25.57;64.24
71039;SHT30;58692;43.212;27.908;2023-09-19T13:16:00;25.43;64.37
71039;SHT30;58692;43.212;27.908;2023-09-19T13:18:27;25.81;63.96
71039;SHT30;58692;43.212;27.908;2023-09-19T13:21:09;25.66;63.99
71039;SHT30;58692;43.212;27.908;2023-09-19T13:23:38;25.60;64.39
71039;SHT30;58692;43.212;27.908;2023-09-19T13:26:03;25.83;63.69
71039;SHT30;58692;43.212;27.908;2023-09-19T13:28:33;26.16;63.13
71039;SHT30;58692;43.212;27.908;2023-09-19T13:30:58;26.18;63.20
71039;SHT30;58692;43.212;27.908;2023-09-19T13:33:24;25.57;64.80
71039;SHT30;58692;43.212;27.908;2023-09-19T13:35:51;25.42;65.57
71039;SHT30;58692;43.212;27.908;2023-09-19T13:38:17;25.33;64.47
71039;SHT30;58692;43.212;27.908;2023-09-19T13:40:47;25.11;65.80
71039;SHT30;58692;43.212;27.908;2023-09-19T13:43:13;25.12;65.60
71039;SHT30;58692;43.212;27.908;2023-09-19T13:45:39;25.02;65.88
71039;SHT30;58692;43.212;27.908;2023-09-19T13:48:07;25.23;65.23
71039;SHT30;58692;43.212;27.908;2023-09-19T13:50:34;25.29;65.10
71039;SHT30;58692;43.212;27.908;2023-09-19T13:53:02;25.30;64.54
71039;SHT30;58692;43.212;27.908;2023-09-19T13:55:28;25.11;63.61
71039;SHT30;58692;43.212;27.908;2023-09-19T13:57:54;25.14;63.48
71039;SHT30;58692;43.212;27.908;2023-09-19T14:00:20;25.15;62.70
71039;SHT30;58692;43.212;27.908;2023-09-19T14:02:48;25.18;62.74
71039;SHT30;58692;43.212;27.908;2023-09-19T14:05:15;25.27;62.43
71039;SHT30;58692;43.212;27.908;2023-09-19T14:07:43;25.42;61.60
71039;SHT30;58692;43.212;27.908;2023-09-19T14:10:10;25.29;61.36
71039;SHT30;58692;43.212;27.908;2023-09-19T14:12:38;25.22;61.58
71039;SHT30;58692;43.212;27.908;2023-09-19T14:15:07;25.18;61.17
71039;SHT30;58692;43.212;27.908;2023-09-19T14:17:33;25.12;61.84
71039;SHT30;58692;43.212;27.908;2023-09-19T14:19:59;25.04;61.70
71039;SHT30;58692;43.212;27.908;2023-09-19T14:22:25;25.14;61.71
71039;SHT30;58692;43.212;27.908;2023-09-19T14:24:56;25.22;61.65
71039;SHT30;58692;43.212;27.908;2023-09-19T14:27:28;25.25;61.97
71039;SHT30;58692;43.212;27.908;2023-09-19T14:29:54;25.23;62.34
71039;SHT30;58692;43.212;27.908;2023-09-19T14:32:21;25.25;62.78
71039;SHT30;58692;43.212;27.908;2023-09-19T14:34:46;24.99;63.59
71039;SHT30;58692;43.212;27.908;2023-09-19T14:37:12;25.02;63.74
71039;SHT30;58692;43.212;27.908;2023-09-19T14:39:38;25.20;63.53
71039;SHT30;58692;43.212;27.908;2023-09-19T14:42:05;25.11;63.47
71039;SHT30;58692;43.212;27.908;2023-09-19T14:44:30;24.84;63.28
71039;SHT30;58692;43.212;27.908;2023-09-19T14:46:56;24.81;63.85
71039;SHT30;58692;43.212;27.908;2023-09-19T14:49:22;24.75;63.72
71039;SHT30;58692;43.212;27.908;2023-09-19T14:51:50;24.86;63.26
71039;SHT30;58692;43.212;27.908;2023-09-19T14:54:17;24.74;63.16
71039;SHT30;58692;43.212;27.908;2023-09-19T14:56:44;24.72;63.00
71039;SHT30;58692;43.212;27.908;2023-09-19T14:59:10;24.75;62.87
71039;SHT30;58692;43.212;27.908;2023-09-19T15:01:38;24.55;63.01
71039;SHT30;58692;43.212;27.908;2023-09-19T15:04:05;24.54;63.19
71039;SHT30;58692;43.212;27.908;2023-09-19T15:06:30;24.51;63.37
71039;SHT30;58692;43.212;27.908;2023-09-19T15:08:56;24.54;63.26
71039;SHT30;58692;43.212;27.908;2023-09-19T15:11:25;24.54;63.52
71039;SHT30;58692;43.212;27.908;2023-09-19T15:13:52;24.40;63.62
71039;SHT30;58692;43.212;27.908;2023-09-19T15:16:19;24.38;63.69
71039;SHT30;58692;43.212;27.908;2023-09-19T15:18:45;24.30;63.58
71039;SHT30;58692;43.212;27.908;2023-09-19T15:21:13;24.24;63.90
71039;SHT30;58692;43.212;27.908;2023-09-19T15:23:40;24.24;63.39
71039;SHT30;58692;43.212;27.908;2023-09-19T15:26:08;24.31;63.56
71039;SHT30;58692;43.212;27.908;2023-09-19T15:28:39;24.25;63.42
71039;SHT30;58692;43.212;27.908;2023-09-19T15:31:14;24.28;63.17
71039;SHT30;58692;43.212;27.908;2023-09-19T15:33:42;24.17;63.92
71039;SHT30;58692;43.212;27.908;2023-09-19T15:36:11;24.20;64.02
71039;SHT30;58692;43.212;27.908;2023-09-19T15:38:57;24.20;63.95
71039;SHT30;58692;43.212;27.908;2023-09-19T15:43:53;24.07;64.53
71039;SHT30;58692;43.212;27.908;2023-09-19T15:46:20;24.13;64.40
71039;SHT30;58692;43.212;27.908;2023-09-19T15:48:46;24.14;64.02
71039;SHT30;58692;43.212;27.908;2023-09-19T15:51:12;24.17;63.95
71039;SHT30;58692;43.212;27.908;2023-09-19T15:53:49;24.12;64.08
71039;SHT30;58692;43.212;27.908;2023-09-19T15:56:16;24.12;64.03
71039;SHT30;58692;43.212;27.908;2023-09-19T15:58:44;24.06;64.12
71039;SHT30;58692;43.212;27.908;2023-09-19T16:01:10;24.04;64.23
71039;SHT30;58692;43.212;27.908;2023-09-19T16:03:38;24.10;64.05
71039;SHT30;58692;43.212;27.908;2023-09-19T16:06:13;24.16;63.80
71039;SHT30;58692;43.212;27.908;2023-09-19T16:08:42;24.23;63.52
71039;SHT30;58692;43.212;27.908;2023-09-19T16:11:09;23.99;64.22
71039;SHT30;58692;43.212;27.908;2023-09-19T16:13:36;23.83;64.60
71039;SHT30;58692;43.212;27.908;2023-09-19T16:16:06;23.74;64.44
71039;SHT30;58692;43.212;27.908;2023-09-19T16:18:33;23.77;64.20
71039;SHT30;58692;43.212;27.908;2023-09-19T16:21:02;23.86;64.16
71039;SHT30;58692;43.212;27.908;2023-09-19T16:23:28;23.82;64.25
71039;SHT30;58692;43.212;27.908;2023-09-19T16:26:01;23.87;63.56
71039;SHT30;58692;43.212;27.908;2023-09-19T16:28:27;23.83;63.89
71039;SHT30;58692;43.212;27.908;2023-09-19T16:30:52;23.70;63.71